createdAt,value
2023-04-23T00:00:37.749Z,151.87
2023-04-23T00:03:10.407Z,152.17
2023-04-23T00:05:38.835Z,151.77
2023-04-23T00:08:07.445Z,151.67
2023-04-23T00:10:35.590Z,151.53
2023-04-23T00:13:04.160Z,151.60
2023-04-23T00:15:32.744Z,151.93
2023-04-23T00:18:00.502Z,151.10
2023-04-23T00:20:29.688Z,151.30
2023-04-23T00:22:57.485Z,151.47
2023-04-23T00:25:25.233Z,151.27
2023-04-23T00:27:53.035Z,152.23
2023-04-23T00:30:20.956Z,151.83
2023-04-23T00:32:48.864Z,151.60
2023-04-23T00:35:16.748Z,152.13
2023-04-23T00:37:46.180Z,151.00
2023-04-23T00:40:14.191Z,151.60
2023-04-23T00:42:42.419Z,151.27
2023-04-23T00:45:10.770Z,151.17
2023-04-23T00:47:38.604Z,151.70
2023-04-23T00:50:08.036Z,151.60
2023-04-23T00:52:36.483Z,152.10
2023-04-23T00:55:06.400Z,151.40
2023-04-23T00:57:34.319Z,151.10
2023-04-23T01:00:02.219Z,150.90
2023-04-23T01:02:32.093Z,150.67
2023-04-23T01:05:02.315Z,151.30
2023-04-23T01:07:30.407Z,151.03
2023-04-23T01:09:58.309Z,150.57
2023-04-23T01:12:27.942Z,150.93
2023-04-23T01:14:55.904Z,151.47
2023-04-23T01:17:23.909Z,150.73
2023-04-23T01:19:54.154Z,151.67
2023-04-23T01:22:23.551Z,150.60
2023-04-23T01:24:52.641Z,151.03
2023-04-23T01:27:22.225Z,151.10
2023-04-23T01:29:50.802Z,150.20
2023-04-23T01:32:20.272Z,150.57
2023-04-23T01:34:48.946Z,150.90
2023-04-23T01:37:17.790Z,150.53
2023-04-23T01:39:47.004Z,150.43
2023-04-23T01:42:15.814Z,150.37
2023-04-23T01:44:43.673Z,150.33
2023-04-23T01:47:12.062Z,150.70
2023-04-23T01:49:39.878Z,150.83
2023-04-23T01:52:07.667Z,150.53
2023-04-23T01:54:35.464Z,150.67
2023-04-23T01:57:04.765Z,150.10
2023-04-23T01:59:33.595Z,150.63
2023-04-23T02:02:01.446Z,150.60
2023-04-23T02:04:31.441Z,150.20
2023-04-23T02:06:59.445Z,149.90
2023-04-23T02:09:27.253Z,150.30
2023-04-23T02:11:55.075Z,150.63
2023-04-23T02:14:24.220Z,149.90
2023-04-23T02:16:52.028Z,149.87
2023-04-23T02:19:19.830Z,149.80
2023-04-23T02:21:47.644Z,150.47
2023-04-23T02:24:15.544Z,150.23
2023-04-23T02:26:43.436Z,150.07
2023-04-23T02:29:11.299Z,150.07
2023-04-23T02:31:40.460Z,149.63
2023-04-23T02:34:08.303Z,149.43
2023-04-23T02:36:36.488Z,150.60
2023-04-23T02:39:04.497Z,150.10
2023-04-23T02:41:32.344Z,150.40
2023-04-23T02:44:00.346Z,149.63
2023-04-23T02:46:28.546Z,149.40
2023-04-23T02:48:57.724Z,149.77
2023-04-23T02:51:26.015Z,149.70
2023-04-23T02:53:53.802Z,149.47
2023-04-23T02:56:21.619Z,150.00
2023-04-23T02:58:49.474Z,149.23
2023-04-23T03:01:18.036Z,148.53
2023-04-23T03:03:46.193Z,149.13
2023-04-23T03:06:15.829Z,149.10
2023-04-23T03:08:43.599Z,148.90
2023-04-23T03:11:11.378Z,149.70
2023-04-23T03:13:39.643Z,149.13
2023-04-23T03:16:07.735Z,148.73
2023-04-23T03:18:35.657Z,148.90
2023-04-23T03:21:03.916Z,149.37
2023-04-23T03:23:33.398Z,149.43
2023-04-23T03:26:01.200Z,148.67
2023-04-23T03:28:29.020Z,149.07
2023-04-23T03:30:56.989Z,148.43
2023-04-23T03:33:24.824Z,149.10
2023-04-23T03:35:52.630Z,149.50
2023-04-23T03:38:24.990Z,148.80
2023-04-23T03:40:56.596Z,149.07
2023-04-23T03:43:26.328Z,149.50
2023-04-23T03:46:06.607Z,149.13
2023-04-23T03:48:39.046Z,149.03
2023-04-23T03:51:11.888Z,148.80
2023-04-23T03:53:49.683Z,148.83
2023-04-23T03:56:41.403Z,148.70
2023-04-23T03:59:19.311Z,148.53
2023-04-23T04:01:49.482Z,148.40
2023-04-23T04:04:17.475Z,148.13
2023-04-23T04:06:45.801Z,148.90
2023-04-23T04:09:13.571Z,148.07
2023-04-23T04:11:42.694Z,148.67
2023-04-23T04:14:10.790Z,148.87
2023-04-23T04:16:38.689Z,148.47
2023-04-23T04:19:06.572Z,148.63
2023-04-23T04:21:34.409Z,148.57
2023-04-23T04:24:02.717Z,148.27
2023-04-23T04:26:32.374Z,148.00
2023-04-23T04:29:01.829Z,148.47
2023-04-23T04:31:29.715Z,147.67
2023-04-23T04:33:57.740Z,148.37
2023-04-23T04:36:27.071Z,148.73
2023-04-23T04:38:55.950Z,147.73
2023-04-23T04:41:25.354Z,147.57
2023-04-23T04:43:53.306Z,148.23
2023-04-23T04:46:22.586Z,148.90
2023-04-23T04:48:50.439Z,148.20
2023-04-23T04:51:18.259Z,148.17
2023-04-23T04:53:46.016Z,148.63
2023-04-23T04:56:13.808Z,148.73
2023-04-23T04:58:41.592Z,148.23
2023-04-23T05:01:09.538Z,148.23
2023-04-23T05:03:39.153Z,148.27
2023-04-23T05:06:07.463Z,148.67
2023-04-23T05:08:36.899Z,148.23
2023-04-23T05:11:04.853Z,147.80
2023-04-23T05:13:32.740Z,148.53
2023-04-23T05:16:00.602Z,148.87
2023-04-23T05:18:28.841Z,147.93
2023-04-23T05:20:57.998Z,148.20
2023-04-23T05:23:25.791Z,148.73
2023-04-23T05:25:55.897Z,148.57
2023-04-23T05:28:23.676Z,148.33
2023-04-23T05:30:51.921Z,147.90
2023-04-23T05:33:19.976Z,147.57
2023-04-23T05:35:47.761Z,148.87
2023-04-23T05:38:20.170Z,148.60
2023-04-23T05:40:48.052Z,147.73
2023-04-23T05:43:16.256Z,148.43
2023-04-23T05:45:46.467Z,149.33
2023-04-23T05:48:14.348Z,148.90
2023-04-23T05:50:42.127Z,149.23
2023-04-23T05:53:09.942Z,149.17
2023-04-23T05:55:39.206Z,149.43
2023-04-23T05:58:07.066Z,149.50
2023-04-23T06:00:35.481Z,149.37
2023-04-23T06:03:03.456Z,149.53
2023-04-23T06:05:31.416Z,149.97
2023-04-23T06:07:59.301Z,150.47
2023-04-23T06:10:27.074Z,150.23
2023-04-23T06:12:56.401Z,151.17
2023-04-23T06:15:26.845Z,151.40
2023-04-23T06:17:54.869Z,151.37
2023-04-23T06:20:23.520Z,151.17
2023-04-23T06:22:51.339Z,151.83
2023-04-23T06:25:19.159Z,151.77
2023-04-23T06:27:46.995Z,152.00
2023-04-23T06:30:22.116Z,152.77
2023-04-23T06:32:51.588Z,153.10
2023-04-23T06:35:19.456Z,152.93
2023-04-23T06:37:47.274Z,152.20
2023-04-23T06:40:15.916Z,152.63
2023-04-23T06:42:45.299Z,152.37
2023-04-23T06:45:18.420Z,153.30
2023-04-23T06:47:49.145Z,152.60
2023-04-23T06:50:17.033Z,153.53
2023-04-23T06:52:44.896Z,153.57
2023-04-23T06:55:13.211Z,153.27
2023-04-23T06:57:41.060Z,154.17
2023-04-23T07:00:11.591Z,154.23
2023-04-23T07:02:42.456Z,154.17
2023-04-23T07:05:12.090Z,153.93
2023-04-23T07:07:40.599Z,155.13
2023-04-23T07:10:09.853Z,154.53
2023-04-23T07:12:38.116Z,154.60
2023-04-23T07:15:07.494Z,154.03
2023-04-23T07:17:35.912Z,154.43
2023-04-23T07:20:06.353Z,154.50
2023-04-23T07:22:36.085Z,154.63
2023-04-23T07:25:05.243Z,154.70
2023-04-23T07:27:33.077Z,154.43
2023-04-23T07:30:01.851Z,154.20
2023-04-23T07:32:29.992Z,153.93
2023-04-23T07:34:57.908Z,153.93
2023-04-23T07:37:25.759Z,154.73
2023-04-23T07:39:54.868Z,154.27
2023-04-23T07:42:22.666Z,154.70
2023-04-23T07:44:50.489Z,154.40
2023-04-23T07:47:18.311Z,154.40
2023-04-23T07:49:46.122Z,154.33
2023-04-23T07:52:13.972Z,154.07
2023-04-23T07:54:41.753Z,154.10
2023-04-23T07:57:12.085Z,154.27
2023-04-23T07:59:40.099Z,153.97
2023-04-23T08:02:08.422Z,153.53
2023-04-23T08:04:36.455Z,154.10
2023-04-23T08:07:04.382Z,153.97
2023-04-23T08:09:32.167Z,155.10
2023-04-23T08:12:00.064Z,154.27
2023-04-23T08:14:29.232Z,153.80
2023-04-23T08:16:57.040Z,153.50
2023-04-23T08:19:25.699Z,155.00
2023-04-23T08:21:53.566Z,155.40
2023-04-23T08:24:21.342Z,155.70
2023-04-23T08:26:49.456Z,156.77
2023-04-23T08:29:17.245Z,157.57
2023-04-23T08:31:46.518Z,157.53
2023-04-23T08:34:14.938Z,157.83
2023-04-23T08:36:42.872Z,157.70
2023-04-23T08:39:11.375Z,157.70
2023-04-23T08:41:42.654Z,157.97
2023-04-23T08:44:17.938Z,157.47
2023-04-23T08:46:47.329Z,158.77
2023-04-23T08:49:16.999Z,159.30
2023-04-23T08:51:49.675Z,159.60
2023-04-23T08:54:22.424Z,158.40
2023-04-23T08:56:52.009Z,158.00
2023-04-23T08:59:21.288Z,158.47
2023-04-23T09:01:51.054Z,158.00
2023-04-23T09:04:20.444Z,158.93
2023-04-23T09:06:48.296Z,158.53
2023-04-23T09:09:17.681Z,158.37
2023-04-23T09:11:45.584Z,158.73
2023-04-23T09:14:14.196Z,158.97
2023-04-23T09:16:42.561Z,158.83
2023-04-23T09:19:12.455Z,158.80
2023-04-23T09:21:41.438Z,159.10
2023-04-23T09:24:12.338Z,158.87
2023-04-23T09:26:46.660Z,159.17
2023-04-23T09:29:17.376Z,159.03
2023-04-23T09:31:47.692Z,159.00
2023-04-23T09:34:19.083Z,158.97
2023-04-23T09:36:49.203Z,159.10
2023-04-23T09:39:18.287Z,159.33
2023-04-23T09:41:46.752Z,159.70
2023-04-23T09:44:19.259Z,158.73
2023-04-23T09:46:47.117Z,159.37
2023-04-23T09:49:15.329Z,158.70
2023-04-23T09:51:46.445Z,158.60
2023-04-23T09:54:16.422Z,158.27
2023-04-23T09:56:44.762Z,158.23
2023-04-23T09:59:32.010Z,158.07
2023-04-23T10:02:09.527Z,158.10
2023-04-23T10:04:39.570Z,158.73
2023-04-23T10:09:44.534Z,158.77
2023-04-23T10:12:31.401Z,159.07
2023-04-23T10:15:01.685Z,158.80
2023-04-23T10:17:29.627Z,158.93
2023-04-23T10:19:59.062Z,159.50
2023-04-23T10:22:29.928Z,158.73
2023-04-23T10:24:59.118Z,158.30
2023-04-23T10:27:40.481Z,157.73
2023-04-23T10:30:17.759Z,157.53
2023-04-23T10:32:48.581Z,158.53
2023-04-23T10:35:16.636Z,158.33
2023-04-23T10:37:47.980Z,158.90
2023-04-23T10:40:19.687Z,158.53
2023-04-23T10:42:49.374Z,158.00
2023-04-23T10:47:49.365Z,157.57
2023-04-23T10:50:23.187Z,158.00
2023-04-23T10:52:53.665Z,158.03
2023-04-23T10:55:23.323Z,158.47
2023-04-23T10:58:00.841Z,158.67
2023-04-23T11:00:31.400Z,158.63
2023-04-23T11:02:59.230Z,158.37
2023-04-23T11:05:29.162Z,157.57
2023-04-23T11:08:18.870Z,158.37
2023-04-23T11:10:57.350Z,158.07
2023-04-23T11:13:25.919Z,158.47
2023-04-23T11:16:17.508Z,158.93
2023-04-23T11:18:58.946Z,157.73
2023-04-23T11:21:58.329Z,158.67
2023-04-23T11:24:28.709Z,158.00
2023-04-23T11:26:57.021Z,158.43
2023-04-23T11:29:26.525Z,158.40
2023-04-23T11:32:02.709Z,159.20
2023-04-23T11:34:32.062Z,158.70
2023-04-23T11:37:01.300Z,158.53
2023-04-23T11:39:30.512Z,158.87
2023-04-23T11:41:59.209Z,158.17
2023-04-23T11:44:27.021Z,159.10
2023-04-23T11:49:22.914Z,158.53
2023-04-23T11:51:50.692Z,158.90
2023-04-23T11:54:19.963Z,158.93
2023-04-23T11:56:49.132Z,159.13
2023-04-23T11:59:16.888Z,158.97
2023-04-23T12:01:46.965Z,158.87
2023-04-23T12:04:17.175Z,159.00
2023-04-23T12:06:46.809Z,158.27
2023-04-23T12:09:16.658Z,159.13
2023-04-23T12:11:46.788Z,158.60
2023-04-23T12:14:16.523Z,158.87
2023-04-23T12:16:46.888Z,158.10
2023-04-23T12:19:16.763Z,158.43
2023-04-23T12:21:54.499Z,158.20
2023-04-23T12:24:23.477Z,158.73
2023-04-23T12:26:54.337Z,159.03
2023-04-23T12:29:24.191Z,158.87
2023-04-23T12:31:53.083Z,158.33
2023-04-23T12:34:21.845Z,158.73
2023-04-23T12:36:51.348Z,158.60
2023-04-23T12:39:33.615Z,158.67
2023-04-23T12:42:04.857Z,158.70
2023-04-23T12:44:35.763Z,158.33
2023-04-23T12:47:05.154Z,158.70
2023-04-23T12:49:34.025Z,158.77
2023-04-23T12:52:03.103Z,158.33
2023-04-23T12:54:32.944Z,159.10
2023-04-23T12:57:02.658Z,158.83
2023-04-23T12:59:31.191Z,158.80
2023-04-23T13:02:02.038Z,158.43
2023-04-23T13:04:30.469Z,159.10
2023-04-23T13:06:58.340Z,158.90
2023-04-23T13:09:27.789Z,159.47
2023-04-23T13:11:56.223Z,159.50
2023-04-23T13:14:24.005Z,158.83
2023-04-23T13:16:52.665Z,159.20
2023-04-23T13:19:21.894Z,158.57
2023-04-23T13:21:49.690Z,158.07
2023-04-23T13:24:17.452Z,157.97
2023-04-23T13:26:45.259Z,158.47
2023-04-23T13:29:13.151Z,158.07
2023-04-23T13:31:41.013Z,157.83
2023-04-23T13:34:08.864Z,158.63
2023-04-23T13:36:41.116Z,158.60
2023-04-23T13:39:09.677Z,157.67
2023-04-23T13:41:37.532Z,157.70
2023-04-23T13:44:05.607Z,158.07
2023-04-23T13:46:33.900Z,157.80
2023-04-23T13:49:02.004Z,158.27
2023-04-23T13:51:35.697Z,158.83
2023-04-23T13:54:05.486Z,158.90
2023-04-23T13:56:33.638Z,158.70
2023-04-23T13:59:12.035Z,158.90
2023-04-23T14:01:47.021Z,158.43
2023-04-23T14:04:15.065Z,158.57
2023-04-23T14:06:43.143Z,159.00
2023-04-23T14:09:12.541Z,158.43
2023-04-23T14:11:41.374Z,158.83
2023-04-23T14:14:09.381Z,158.40
2023-04-23T14:16:37.292Z,159.37
2023-04-23T14:19:05.182Z,159.10
2023-04-23T14:21:33.656Z,158.87
2023-04-23T14:24:08.848Z,158.57
2023-04-23T14:26:48.696Z,158.83
2023-04-23T14:29:26.052Z,158.80
2023-04-23T14:31:53.881Z,159.10
2023-04-23T14:34:22.100Z,158.03
2023-04-23T14:36:50.111Z,159.17
2023-04-23T14:39:17.977Z,159.03
2023-04-23T14:41:47.195Z,159.40
2023-04-23T14:44:15.012Z,158.90
2023-04-23T14:46:42.807Z,158.63
2023-04-23T14:49:10.820Z,158.43
2023-04-23T14:51:38.629Z,158.67
2023-04-23T14:54:07.410Z,159.00
2023-04-23T14:56:35.193Z,159.47
2023-04-23T14:59:04.569Z,158.77
2023-04-23T15:01:32.457Z,159.03
2023-04-23T15:04:00.390Z,158.37
2023-04-23T15:06:28.326Z,158.67
2023-04-23T15:08:56.131Z,159.27
2023-04-23T15:11:24.014Z,158.87
2023-04-23T15:13:57.697Z,159.30
2023-04-23T15:16:44.178Z,158.70
2023-04-23T15:19:15.096Z,158.27
2023-04-23T15:21:43.036Z,159.30
2023-04-23T15:24:11.238Z,158.70
2023-04-23T15:26:39.088Z,158.07
2023-04-23T15:29:08.721Z,158.50
2023-04-23T15:31:38.659Z,158.93
2023-04-23T15:34:08.410Z,159.13
2023-04-23T15:36:37.286Z,158.67
2023-04-23T15:39:05.796Z,158.77
2023-04-23T15:41:33.691Z,159.00
2023-04-23T15:44:02.859Z,158.43
2023-04-23T15:46:30.919Z,158.27
2023-04-23T15:49:00.107Z,158.53
2023-04-23T15:51:27.929Z,158.63
2023-04-23T15:53:55.743Z,159.10
2023-04-23T15:56:24.193Z,158.67
2023-04-23T15:58:51.978Z,158.00
2023-04-23T16:01:20.038Z,158.40
2023-04-23T16:04:01.790Z,158.10
2023-04-23T16:06:36.977Z,158.03
2023-04-23T16:09:08.631Z,157.73
2023-04-23T16:11:37.341Z,158.53
2023-04-23T16:14:06.078Z,158.07
2023-04-23T16:16:33.990Z,158.53
2023-04-23T16:19:03.041Z,158.70
2023-04-23T16:21:31.131Z,158.30
2023-04-23T16:24:00.288Z,158.23
2023-04-23T16:26:29.178Z,158.37
2023-04-23T16:29:11.432Z,158.20
2023-04-23T16:31:45.956Z,158.60
2023-04-23T16:34:13.774Z,157.93
2023-04-23T16:36:41.675Z,157.87
2023-04-23T16:39:11.055Z,158.20
2023-04-23T16:41:38.902Z,158.73
2023-04-23T16:44:06.842Z,158.50
2023-04-23T16:46:34.742Z,158.47
2023-04-23T16:49:02.586Z,158.33
2023-04-23T16:51:30.358Z,158.60
2023-04-23T16:53:58.264Z,157.87
2023-04-23T16:56:27.953Z,157.03
2023-04-23T16:58:55.783Z,157.20
2023-04-23T17:01:23.634Z,157.57
2023-04-23T17:03:51.682Z,157.30
2023-04-23T17:06:27.722Z,156.73
2023-04-23T17:08:57.599Z,156.53
2023-04-23T17:11:26.877Z,157.00
2023-04-23T17:13:55.561Z,156.83
2023-04-23T17:16:25.080Z,156.40
2023-04-23T17:18:53.140Z,156.10
2023-04-23T17:21:24.448Z,156.30
2023-04-23T17:23:52.364Z,156.40
2023-04-23T17:26:20.766Z,156.57
2023-04-23T17:28:49.918Z,156.33
2023-04-23T17:31:18.456Z,156.10
2023-04-23T17:33:49.008Z,156.30
2023-04-23T17:36:17.087Z,156.10
2023-04-23T17:38:44.880Z,156.53
2023-04-23T17:41:12.729Z,155.70
2023-04-23T17:43:40.983Z,155.50
2023-04-23T17:46:10.159Z,156.10
2023-04-23T17:48:37.951Z,156.00
2023-04-23T17:51:05.775Z,155.83
2023-04-23T17:53:33.648Z,155.40
2023-04-23T17:56:03.210Z,155.77
2023-04-23T17:58:31.506Z,156.07
2023-04-23T18:00:59.552Z,155.77
2023-04-23T18:03:30.081Z,154.87
2023-04-23T18:05:58.108Z,155.43
2023-04-23T18:08:25.936Z,155.63
2023-04-23T18:10:53.795Z,155.20
2023-04-23T18:13:21.601Z,155.40
2023-04-23T18:15:49.575Z,154.77
2023-04-23T18:18:17.770Z,155.13
2023-04-23T18:20:47.318Z,155.00
2023-04-23T18:23:15.165Z,155.53
2023-04-23T18:25:42.975Z,155.23
2023-04-23T18:28:10.916Z,155.23
2023-04-23T18:30:38.832Z,154.70
2023-04-23T18:33:13.808Z,154.60
2023-04-23T18:35:42.956Z,154.27
2023-04-23T18:38:25.678Z,155.00
2023-04-23T18:40:53.636Z,154.10
2023-04-23T18:43:21.424Z,154.73
2023-04-23T18:45:49.231Z,154.10
2023-04-23T18:48:42.326Z,154.57
2023-04-23T18:51:22.855Z,153.83
2023-04-23T18:53:52.113Z,153.80
2023-04-23T18:56:19.895Z,154.03
2023-04-23T18:58:47.796Z,153.80
2023-04-23T19:01:15.647Z,154.07
2023-04-23T19:03:43.797Z,153.70
2023-04-23T19:06:11.688Z,154.47
2023-04-23T19:08:39.486Z,154.33
2023-04-23T19:11:08.632Z,153.83
2023-04-23T19:13:36.452Z,154.53
2023-04-23T19:16:04.326Z,153.90
2023-04-23T19:18:32.142Z,153.67
2023-04-23T19:20:59.959Z,154.10
2023-04-23T19:23:27.766Z,154.03
2023-04-23T19:25:55.729Z,154.10
2023-04-23T19:28:25.346Z,154.07
2023-04-23T19:30:53.370Z,153.03
2023-04-23T19:33:21.179Z,154.37
2023-04-23T19:35:48.961Z,154.50
2023-04-23T19:38:16.783Z,154.50
2023-04-23T19:40:44.608Z,154.73
2023-04-23T19:43:12.901Z,154.27
2023-04-23T19:45:42.135Z,154.53
2023-04-23T19:48:10.364Z,154.80
2023-04-23T19:50:38.138Z,154.17
2023-04-23T19:53:06.616Z,154.70
2023-04-23T19:55:34.420Z,155.00
2023-04-23T19:58:06.124Z,153.80
2023-04-23T20:00:39.104Z,154.77
2023-04-23T20:03:09.125Z,154.67
2023-04-23T20:05:37.481Z,154.03
2023-04-23T20:08:11.237Z,154.27
2023-04-23T20:10:39.046Z,153.67
2023-04-23T20:13:06.894Z,154.67
2023-04-23T20:15:34.703Z,154.47
2023-04-23T20:18:02.624Z,154.17
2023-04-23T20:20:33.816Z,154.47
2023-04-23T20:23:01.789Z,154.37
2023-04-23T20:25:29.715Z,154.23
2023-04-23T20:27:57.689Z,153.87
2023-04-23T20:30:25.874Z,154.13
2023-04-23T20:32:54.004Z,154.23
2023-04-23T20:35:21.881Z,153.73
2023-04-23T20:37:52.923Z,154.20
2023-04-23T20:40:20.844Z,153.90
2023-04-23T20:42:51.505Z,153.90
2023-04-23T20:45:20.433Z,153.97
2023-04-23T20:47:48.835Z,154.20
2023-04-23T20:50:17.052Z,154.13
2023-04-23T20:52:44.850Z,154.07
2023-04-23T20:55:14.010Z,153.77
2023-04-23T20:57:42.257Z,154.07
2023-04-23T21:00:12.643Z,153.77
2023-04-23T21:02:40.586Z,154.17
2023-04-23T21:05:09.403Z,153.27
2023-04-23T21:07:37.516Z,152.90
2023-04-23T21:10:05.829Z,153.63
2023-04-23T21:12:35.048Z,153.03
2023-04-23T21:15:02.914Z,153.33
2023-04-23T21:17:30.798Z,153.10
2023-04-23T21:19:58.618Z,153.40
2023-04-23T21:22:26.487Z,153.73
2023-04-23T21:24:54.285Z,152.80
2023-04-23T21:27:22.207Z,153.43
2023-04-23T21:29:51.623Z,152.73
2023-04-23T21:32:19.631Z,153.10
2023-04-23T21:34:47.503Z,153.53
2023-04-23T21:37:15.330Z,152.20
2023-04-23T21:39:43.394Z,152.53
2023-04-23T21:42:11.411Z,152.63
2023-04-23T21:44:40.566Z,152.73
2023-04-23T21:47:09.699Z,152.87
2023-04-23T21:49:37.546Z,153.83
2023-04-23T21:52:06.452Z,152.97
2023-04-23T21:54:34.220Z,153.47
2023-04-23T21:57:02.600Z,152.47
2023-04-23T21:59:30.855Z,153.30
2023-04-23T22:01:59.260Z,153.07
2023-04-23T22:04:29.199Z,153.00
2023-04-23T22:07:02.214Z,153.37
2023-04-23T22:09:30.074Z,153.00
2023-04-23T22:14:28.716Z,153.70
2023-04-23T22:16:58.571Z,153.30
2023-04-23T22:19:27.857Z,152.90
2023-04-23T22:21:55.828Z,153.33
2023-04-23T22:24:24.155Z,152.77
2023-04-23T22:26:51.963Z,153.50
2023-04-23T22:29:19.781Z,153.23
2023-04-23T22:31:47.608Z,153.20
2023-04-23T22:34:15.393Z,152.97
2023-04-23T22:36:44.506Z,153.00
2023-04-23T22:39:12.845Z,152.70
2023-04-23T22:41:40.622Z,153.17
2023-04-23T22:44:09.154Z,154.13
2023-04-23T22:46:37.170Z,152.97
2023-04-23T22:49:07.960Z,152.90
2023-04-23T22:51:38.648Z,152.30
2023-04-23T22:54:07.786Z,152.70
2023-04-23T22:56:35.744Z,152.83
2023-04-23T22:59:04.853Z,152.67
2023-04-23T23:01:32.794Z,153.27
2023-04-23T23:04:00.885Z,152.43
2023-04-23T23:06:28.679Z,152.23
2023-04-23T23:08:56.462Z,152.43
2023-04-23T23:11:25.625Z,152.43
2023-04-23T23:13:53.924Z,153.13
2023-04-23T23:16:21.925Z,152.43
2023-04-23T23:18:49.938Z,152.60
2023-04-23T23:21:18.105Z,152.20
2023-04-23T23:23:46.020Z,152.77
2023-04-23T23:26:13.786Z,152.50
2023-04-23T23:28:42.981Z,152.67
2023-04-23T23:31:11.333Z,153.00
2023-04-23T23:33:39.956Z,152.13
2023-04-23T23:36:09.200Z,152.43
2023-04-23T23:38:37.021Z,151.93
2023-04-23T23:41:04.856Z,152.80
2023-04-23T23:43:32.642Z,152.53
2023-04-23T23:46:01.759Z,152.53
2023-04-23T23:48:29.633Z,152.83
2023-04-23T23:50:57.457Z,152.13
2023-04-23T23:53:25.232Z,152.90
2023-04-23T23:55:52.984Z,152.13
2023-04-23T23:58:21.537Z,152.27
